createdAt,value
2023-04-21T06:29:16.052Z,58.96
2023-04-21T06:32:42.953Z,58.99
2023-04-21T06:36:10.384Z,59.13
2023-04-21T06:39:37.523Z,59.11
2023-04-21T06:43:04.216Z,59.29
2023-04-21T06:46:31.545Z,59.34
2023-04-21T06:49:58.644Z,59.35
2023-04-21T06:53:25.298Z,59.31
2023-04-21T06:56:52.508Z,59.25
2023-04-21T07:00:21.164Z,59.07
2023-04-21T07:03:48.111Z,59.12
2023-04-21T07:07:16.176Z,59.11
2023-04-21T07:10:42.909Z,58.99
2023-04-21T07:14:09.602Z,58.78
2023-04-21T07:17:36.385Z,58.68
2023-04-21T07:21:03.211Z,58.63
2023-04-21T07:24:33.009Z,58.52
2023-04-21T07:28:00.187Z,58.54
2023-04-21T07:31:27.114Z,58.39
2023-04-21T07:34:54.244Z,58.54
2023-04-21T07:38:21.411Z,58.37
2023-04-21T07:41:51.443Z,58.34
2023-04-21T07:45:18.501Z,58.13
2023-04-21T07:48:46.621Z,58.16
2023-04-21T07:52:13.880Z,58.17
2023-04-21T07:55:40.766Z,58.06
2023-04-21T07:59:08.011Z,57.80
2023-04-21T08:02:35.314Z,57.82
2023-04-21T08:06:02.495Z,57.50
2023-04-21T08:09:29.702Z,57.53
2023-04-21T08:12:57.170Z,57.20
2023-04-21T08:16:25.799Z,56.84
2023-04-21T08:19:57.389Z,56.72
2023-04-21T08:23:32.262Z,56.55
2023-04-21T08:27:04.166Z,56.50
2023-04-21T08:30:32.323Z,56.43
2023-04-21T08:34:02.774Z,56.22
2023-04-21T08:37:32.473Z,56.09
2023-04-21T08:41:02.906Z,55.88
2023-04-21T08:44:30.931Z,55.38
2023-04-21T08:48:00.710Z,55.24
2023-04-21T08:51:35.281Z,55.07
2023-04-21T08:55:09.807Z,54.87
2023-04-21T08:58:44.440Z,54.73
2023-04-21T09:02:18.716Z,54.61
2023-04-21T09:05:58.946Z,54.27
2023-04-21T09:09:27.727Z,54.04
2023-04-21T09:12:56.543Z,53.62
2023-04-21T09:16:24.683Z,53.27
2023-04-21T09:19:52.221Z,53.12
2023-04-21T09:23:19.158Z,52.97
2023-04-21T09:26:45.730Z,52.58
2023-04-21T09:30:20.034Z,52.35
2023-04-21T09:33:59.432Z,52.34
2023-04-21T09:37:27.693Z,52.09
2023-04-21T09:41:01.506Z,51.79
2023-04-21T09:44:28.420Z,51.47
2023-04-21T09:47:58.719Z,51.33
2023-04-21T09:51:42.722Z,50.95
2023-04-21T09:55:17.884Z,50.58
2023-04-21T09:58:53.899Z,50.30
2023-04-21T10:02:26.115Z,50.10
2023-04-21T10:05:53.285Z,49.94
2023-04-21T10:09:23.284Z,49.75
2023-04-21T10:12:51.602Z,49.61
2023-04-21T10:16:21.704Z,49.03
2023-04-21T10:19:57.515Z,48.64
2023-04-21T10:23:38.985Z,48.45
2023-04-21T10:27:05.937Z,48.26
2023-04-21T10:30:32.766Z,47.96
2023-04-21T10:34:16.031Z,47.90
2023-04-21T10:37:43.830Z,47.56
2023-04-21T10:41:30.137Z,47.51
2023-04-21T10:45:07.828Z,47.20
2023-04-21T10:48:40.014Z,46.80
2023-04-21T10:52:12.461Z,46.64
2023-04-21T10:55:39.547Z,46.69
2023-04-21T10:59:07.400Z,46.55
2023-04-21T11:02:36.563Z,46.25
2023-04-21T11:06:18.477Z,45.71
2023-04-21T11:09:47.211Z,45.61
2023-04-21T11:13:14.173Z,45.79
2023-04-21T11:16:45.561Z,45.43
2023-04-21T11:20:14.435Z,45.30
2023-04-21T11:23:49.311Z,45.15
2023-04-21T11:27:18.159Z,44.93
2023-04-21T11:30:46.575Z,44.64
2023-04-21T11:34:14.006Z,44.62
2023-04-21T11:37:41.485Z,44.40
2023-04-21T11:41:09.676Z,44.34
2023-04-21T11:44:39.273Z,43.94
2023-04-21T11:48:18.572Z,43.97
2023-04-21T11:51:47.121Z,44.03
2023-04-21T11:55:19.940Z,44.31
2023-04-21T11:58:47.381Z,44.26
2023-04-21T12:02:23.362Z,44.17
2023-04-21T12:05:50.164Z,43.71
2023-04-21T12:09:22.025Z,43.36
2023-04-21T12:12:49.798Z,43.09
2023-04-21T12:16:17.732Z,43.12
2023-04-21T12:19:45.691Z,43.19
2023-04-21T12:23:13.448Z,43.02
2023-04-21T12:26:41.110Z,42.82
2023-04-21T12:30:10.810Z,42.50
2023-04-21T12:33:38.311Z,42.66
2023-04-21T12:37:05.111Z,42.15
2023-04-21T12:40:32.190Z,41.91
2023-04-21T12:43:58.948Z,41.57
2023-04-21T12:47:25.687Z,41.48
2023-04-21T12:50:52.620Z,41.39
2023-04-21T12:54:20.132Z,41.22
2023-04-21T12:57:47.562Z,40.80
2023-04-21T13:01:17.096Z,40.72
2023-04-21T13:04:46.159Z,40.78
2023-04-21T13:08:12.943Z,40.77
2023-04-21T13:11:40.054Z,40.39
2023-04-21T13:15:09.155Z,40.16
2023-04-21T13:18:37.526Z,39.81
2023-04-21T13:22:04.582Z,39.72
2023-04-21T13:25:32.023Z,39.50
2023-04-21T13:28:58.759Z,39.23
2023-04-21T13:32:25.752Z,39.20
2023-04-21T13:35:53.680Z,39.14
2023-04-21T13:39:21.468Z,39.14
2023-04-21T13:42:52.439Z,38.80
2023-04-21T13:46:21.438Z,38.54
2023-04-21T13:49:49.011Z,38.36
2023-04-21T13:53:18.164Z,38.24
2023-04-21T13:56:52.416Z,37.89
2023-04-21T14:00:22.309Z,37.83
2023-04-21T14:03:50.943Z,37.55
2023-04-21T14:07:20.155Z,37.56
2023-04-21T14:10:49.114Z,37.33
2023-04-21T14:14:24.283Z,37.04
2023-04-21T14:17:58.391Z,37.14
2023-04-21T14:21:25.397Z,36.79
2023-04-21T14:24:52.680Z,36.58
2023-04-21T14:28:30.513Z,36.44
2023-04-21T14:31:59.004Z,36.23
2023-04-21T14:35:26.912Z,36.08
2023-04-21T14:38:57.589Z,35.97
2023-04-21T14:42:34.795Z,35.85
2023-04-21T14:46:01.771Z,35.84
2023-04-21T14:49:29.621Z,35.74
2023-04-21T14:52:56.704Z,35.33
2023-04-21T14:56:23.590Z,35.33
2023-04-21T14:59:51.805Z,35.04
2023-04-21T15:03:19.091Z,34.97
2023-04-21T15:06:48.903Z,34.82
2023-04-21T15:10:31.240Z,34.71
2023-04-21T15:13:59.116Z,34.60
2023-04-21T15:17:27.975Z,34.53
2023-04-21T15:20:58.274Z,34.36
2023-04-21T15:24:32.087Z,34.44
2023-04-21T15:27:59.779Z,34.21
2023-04-21T15:31:26.726Z,34.26
2023-04-21T15:34:54.269Z,34.36
2023-04-21T15:38:22.871Z,34.33
2023-04-21T15:41:50.267Z,34.32
2023-04-21T15:45:18.343Z,34.36
2023-04-21T15:48:45.683Z,34.15
2023-04-21T15:52:12.672Z,34.18
2023-04-21T15:55:39.720Z,34.47
2023-04-21T15:59:07.664Z,34.50
2023-04-21T16:02:35.042Z,34.50
2023-04-21T16:06:02.126Z,34.59
2023-04-21T16:09:32.606Z,34.70
2023-04-21T16:12:59.589Z,34.83
2023-04-21T16:16:26.360Z,34.92
2023-04-21T16:19:55.447Z,34.94
2023-04-21T16:23:22.558Z,34.93
2023-04-21T16:26:49.993Z,35.01
2023-04-21T16:30:17.174Z,35.12
2023-04-21T16:33:45.728Z,35.15
2023-04-21T16:37:12.690Z,35.11
2023-04-21T16:40:39.846Z,35.38
2023-04-21T16:44:10.838Z,35.50
2023-04-21T16:47:42.155Z,35.75
2023-04-21T16:51:10.429Z,35.90
2023-04-21T16:54:37.096Z,36.04
2023-04-21T16:58:04.930Z,36.17
2023-04-21T17:01:32.557Z,36.35
2023-04-21T17:04:59.785Z,36.37
2023-04-21T17:08:27.108Z,36.41
2023-04-21T17:11:54.669Z,36.53
2023-04-21T17:15:23.941Z,36.71
2023-04-21T17:18:51.048Z,36.80
2023-04-21T17:22:19.352Z,36.97
2023-04-21T17:25:47.377Z,37.06
2023-04-21T17:29:14.796Z,37.28
2023-04-21T17:32:44.528Z,37.45
2023-04-21T17:36:13.017Z,37.52
2023-04-21T17:39:40.717Z,37.75
2023-04-21T17:43:07.476Z,37.68
2023-04-21T17:46:37.111Z,37.85
2023-04-21T17:50:09.417Z,37.80
2023-04-21T17:53:35.966Z,37.83
2023-04-21T17:57:03.080Z,37.93
2023-04-21T18:00:34.783Z,37.95
2023-04-21T18:04:01.983Z,38.12
2023-04-21T18:07:29.729Z,38.20
2023-04-21T18:10:57.387Z,38.24
2023-04-21T18:14:24.425Z,38.36
2023-04-21T18:17:53.360Z,38.29
2023-04-21T18:21:21.603Z,38.37
2023-04-21T18:24:49.172Z,38.45
2023-04-21T18:28:16.124Z,38.56
2023-04-21T18:31:43.034Z,38.62
2023-04-21T18:35:11.961Z,38.66
2023-04-21T18:38:40.844Z,38.93
2023-04-21T18:42:12.968Z,38.92
2023-04-21T18:45:41.532Z,39.19
2023-04-21T18:49:11.230Z,39.15
2023-04-21T18:52:40.501Z,39.29
2023-04-21T18:56:08.438Z,39.33
2023-04-21T18:59:35.931Z,39.31
2023-04-21T19:03:07.206Z,39.48
2023-04-21T19:06:36.901Z,39.47
2023-04-21T19:10:08.122Z,39.67
2023-04-21T19:13:36.844Z,39.68
2023-04-21T19:17:05.036Z,39.64
2023-04-21T19:20:35.933Z,39.93
2023-04-21T19:24:03.505Z,39.92
2023-04-21T19:27:32.076Z,39.67
2023-04-21T19:30:59.659Z,39.89
2023-04-21T19:34:32.499Z,39.95
2023-04-21T19:38:00.922Z,40.23
2023-04-21T19:41:31.809Z,40.27
2023-04-21T19:44:58.999Z,40.21
2023-04-21T19:48:31.910Z,40.40
2023-04-21T19:52:02.453Z,40.47
2023-04-21T19:55:32.957Z,40.43
2023-04-21T19:59:02.249Z,40.33
2023-04-21T20:02:30.768Z,40.58
2023-04-21T20:05:59.221Z,40.76
2023-04-21T20:09:37.882Z,40.80
2023-04-21T20:13:09.840Z,40.80
2023-04-21T20:16:41.655Z,40.91
2023-04-21T20:20:18.953Z,40.59
2023-04-21T20:23:51.986Z,40.91
2023-04-21T20:27:21.923Z,40.97
2023-04-21T20:30:49.674Z,41.02
2023-04-21T20:34:21.561Z,41.03
2023-04-21T20:37:53.843Z,41.06
2023-04-21T20:41:25.333Z,41.05
2023-04-21T20:45:02.629Z,41.00
2023-04-21T20:48:33.266Z,41.04
2023-04-21T20:52:03.535Z,41.12
2023-04-21T20:55:39.000Z,41.18
2023-04-21T20:59:06.313Z,41.24
2023-04-21T21:02:36.728Z,41.32
2023-04-21T21:06:05.029Z,41.35
2023-04-21T21:09:34.148Z,41.25
2023-04-21T21:13:01.420Z,41.34
2023-04-21T21:16:29.412Z,41.49
2023-04-21T21:19:56.455Z,41.41
2023-04-21T21:23:23.217Z,41.46
2023-04-21T21:26:52.211Z,41.46
2023-04-21T21:30:19.636Z,41.71
2023-04-21T21:33:48.865Z,41.65
2023-04-21T21:37:16.522Z,41.76
2023-04-21T21:40:44.659Z,41.94
2023-04-21T21:44:12.190Z,41.83
2023-04-21T21:47:43.213Z,42.08
2023-04-21T21:51:12.780Z,42.04
2023-04-21T21:54:42.095Z,42.22
2023-04-21T21:58:09.714Z,42.25
2023-04-21T22:01:37.020Z,42.50
2023-04-21T22:05:05.574Z,42.40
2023-04-21T22:08:34.457Z,42.59
2023-04-21T22:12:02.747Z,42.57
2023-04-21T22:15:31.758Z,42.52
2023-04-21T22:18:59.427Z,42.81
2023-04-21T22:22:26.990Z,43.09
2023-04-21T22:25:54.634Z,43.10
2023-04-21T22:29:22.908Z,43.30
2023-04-21T22:32:50.432Z,43.22
2023-04-21T22:36:17.366Z,43.37
2023-04-21T22:39:43.955Z,43.37
2023-04-21T22:43:16.177Z,43.50
2023-04-21T22:46:43.049Z,43.74
2023-04-21T22:50:15.197Z,43.55
2023-04-21T22:53:42.354Z,43.98
2023-04-21T22:57:09.096Z,43.90
2023-04-21T23:00:36.015Z,43.92
2023-04-21T23:04:02.840Z,44.23
2023-04-21T23:07:29.805Z,44.47
2023-04-21T23:10:57.217Z,44.25
2023-04-21T23:14:24.447Z,44.42
2023-04-21T23:17:51.542Z,44.42
2023-04-21T23:21:21.041Z,44.49
2023-04-21T23:24:47.698Z,44.72
2023-04-21T23:28:14.595Z,44.92
2023-04-21T23:31:41.880Z,44.64
2023-04-21T23:35:11.545Z,44.67
2023-04-21T23:38:38.520Z,44.98
2023-04-21T23:42:05.475Z,44.84
2023-04-21T23:45:34.431Z,44.84
2023-04-21T23:49:01.198Z,45.29
2023-04-21T23:52:28.690Z,45.23
2023-04-21T23:55:56.519Z,45.09
2023-04-21T23:59:23.259Z,45.54
